Time;durP1;ratioP1;P1;durP2;ratioP2;P2;SDS_P1;SDS_P2;PMS_P1;PMS_P2;Temp;Humidity;BMP_temperature;BMP_pressure;BME280_temperature;BME280_humidity;BME280_pressure;Samples;Min_cycle;Max_cycle;Signal;HPM_P1;HPM_P2
2022/08/04 00:00:10;;;;;;;67.05;53.08;;;;;;;24.32;53.30;93537.66;6079054;23;20026;-94
2022/08/04 00:03:13;;;;;;;64.70;51.45;;;;;;;24.32;53.20;93536.94;6084173;23;20033;-94
2022/08/04 00:06:03;;;;;;;65.45;51.10;;;;;;;24.33;53.32;93532.88;6073017;23;20470;-93
2022/08/04 00:08:34;;;;;;;60.40;49.45;;;;;;;24.32;53.26;93534.91;6104381;23;20026;-94
2022/08/04 00:10:59;;;;;;;61.40;48.83;;;;;;;24.29;53.37;93524.19;6089602;23;20026;-94
2022/08/04 00:13:26;;;;;;;60.25;49.92;;;;;;;24.31;53.48;93525.13;6100856;23;20017;-94
2022/08/04 00:15:57;;;;;;;57.55;48.08;;;;;;;24.31;53.32;93521.63;6147551;23;20027;-94
2022/08/04 00:18:29;;;;;;;58.03;48.23;;;;;;;24.31;53.06;93522.38;6147755;23;20044;-94
2022/08/04 00:20:59;;;;;;;57.63;46.42;;;;;;;24.30;53.25;93526.41;6113067;23;20026;-94
2022/08/04 00:23:29;;;;;;;57.83;47.58;;;;;;;24.33;53.21;93532.88;6055796;23;20014;-94
2022/08/04 00:25:55;;;;;;;58.25;46.60;;;;;;;24.33;53.25;93525.34;6090024;23;20018;-94
2022/08/04 00:28:22;;;;;;;59.15;45.15;;;;;;;24.30;53.18;93529.19;6079838;23;20053;-93
2022/08/04 00:30:50;;;;;;;54.67;45.95;;;;;;;24.32;53.07;93525.88;6067543;23;20014;-94
2022/08/04 00:33:19;;;;;;;53.58;45.60;;;;;;;24.30;53.15;93529.19;6069525;23;20023;-94
2022/08/04 00:35:56;;;;;;;52.58;44.22;;;;;;;24.30;53.38;93523.66;6040710;23;20015;-94
2022/08/04 00:38:22;;;;;;;53.80;43.92;;;;;;;24.33;53.12;93530.13;6044923;23;20029;-93
2022/08/04 00:41:07;;;;;;;50.05;42.38;;;;;;;24.27;53.21;93528.25;6034189;23;20023;-94
2022/08/04 00:43:44;;;;;;;52.50;43.55;;;;;;;24.32;53.24;93525.88;6043787;23;20019;-94
2022/08/04 00:46:32;;;;;;;50.50;42.88;;;;;;;24.31;53.07;93518.88;6012669;23;20015;-95
2022/08/04 00:49:09;;;;;;;52.03;42.08;;;;;;;24.33;53.01;93530.84;6065176;23;20118;-94
2022/08/04 00:52:06;;;;;;;47.35;41.38;;;;;;;24.28;53.17;93523.47;6061573;23;20023;-94
2022/08/04 00:54:58;;;;;;;51.85;42.30;;;;;;;24.29;53.29;93529.72;6136213;23;20019;-94
2022/08/04 00:57:41;;;;;;;51.08;40.85;;;;;;;24.30;53.18;93531.22;6083794;23;20018;-94
2022/08/04 01:00:09;;;;;;;50.38;41.45;;;;;;;24.31;53.01;93521.63;6085589;23;20025;-94
2022/08/04 01:02:50;;;;;;;46.08;40.03;;;;;;;24.27;53.14;93535.81;6087200;23;20614;-94
2022/08/04 01:05:37;;;;;;;48.17;40.30;;;;;;;24.25;53.40;93533.59;6176000;23;20020;-94
2022/08/04 01:08:27;;;;;;;47.13;39.50;;;;;;;24.26;53.20;93537.81;6108380;23;20024;-93
2022/08/04 01:11:12;;;;;;;;;;;;;;;24.26;53.11;93534.31;6170005;23;20043;-93
2022/08/04 01:13:52;;;;;;;45.03;38.05;;;;;;;24.26;53.21;93537.09;6123765;23;19913;-94
2022/08/04 01:16:19;;;;;;;48.70;38.85;;;;;;;24.28;53.09;93531.75;6115799;23;20037;-93
2022/08/04 01:19:07;;;;;;;46.25;37.47;;;;;;;24.25;53.30;93530.06;6083472;23;20093;-95
2022/08/04 01:21:39;;;;;;;45.92;37.53;;;;;;;24.26;53.03;93529.53;6113761;23;20042;-94
2022/08/04 01:24:08;;;;;;;44.85;36.47;;;;;;;24.26;53.18;93534.31;6114474;23;20032;-94
2022/08/04 01:26:45;;;;;;;43.35;36.80;;;;;;;24.24;53.23;93529.38;6113987;23;20037;-94
2022/08/04 01:29:11;;;;;;;44.90;36.78;;;;;;;24.25;53.24;93530.06;6112608;23;20021;-96
2022/08/04 01:32:02;;;;;;;45.38;36.80;;;;;;;24.23;53.22;93532.66;6087612;23;20177;-95
2022/08/04 01:34:40;;;;;;;44.83;35.95;;;;;;;24.23;53.24;93521.59;6097401;23;20018;-94
2022/08/04 01:37:27;;;;;;;40.00;34.58;;;;;;;24.23;53.17;93516.81;6090752;23;20021;-94
2022/08/04 01:40:01;;;;;;;41.35;35.03;;;;;;;24.24;53.18;93514.81;6113951;23;20026;-95
2022/08/04 01:42:28;;;;;;;40.17;34.72;;;;;;;24.25;53.13;93519.03;6068003;23;20013;-93
2022/08/04 01:45:13;;;;;;;37.80;33.65;;;;;;;24.22;53.17;93515.34;6095540;23;20037;-94
2022/08/04 01:47:51;;;;;;;40.35;34.63;;;;;;;24.24;53.01;93515.56;6126015;23;20044;-94
2022/08/04 01:50:16;;;;;;;40.25;34.75;;;;;;;24.27;52.96;93511.66;6137108;23;20017;-94
2022/08/04 01:52:52;;;;;;;41.45;33.72;;;;;;;24.23;52.93;93508.53;6100033;23;20029;-94
2022/08/04 01:55:17;;;;;;;38.35;31.98;;;;;;;24.25;53.09;93510.75;6137721;23;20042;-94
2022/08/04 01:57:53;;;;;;;35.78;31.50;;;;;;;24.21;53.09;93505.56;6085900;23;20056;-93
2022/08/04 02:00:27;;;;;;;34.83;30.65;;;;;;;24.21;53.43;93508.31;6120310;23;20021;-93
2022/08/04 02:03:03;;;;;;;37.30;31.70;;;;;;;24.19;53.28;93497.09;6093066;23;20014;-94
2022/08/04 02:05:29;;;;;;;36.33;31.33;;;;;;;24.21;53.16;93497.28;6104960;23;20022;-94
2022/08/04 02:08:01;;;;;;;37.80;31.30;;;;;;;24.23;53.14;93505.03;6122089;23;20021;-95
2022/08/04 02:10:51;;;;;;;37.38;30.92;;;;;;;24.21;53.11;93504.81;6155815;23;20008;-94
2022/08/04 02:13:31;;;;;;;36.88;30.85;;;;;;;24.23;53.05;93505.03;6147717;23;20085;-94
2022/08/04 02:16:29;;;;;;;35.42;29.98;;;;;;;24.21;53.17;93496.53;6062964;23;20022;-95
2022/08/04 02:19:13;;;;;;;35.47;29.38;;;;;;;24.21;53.13;93497.28;6052928;23;20019;-94
2022/08/04 02:21:51;;;;;;;33.30;29.67;;;;;;;24.20;53.09;93501.31;6104582;23;20059;-94
2022/08/04 02:24:17;;;;;;;36.72;30.55;;;;;;;24.22;53.07;93498.75;6063516;23;20026;-94
2022/08/04 02:26:52;;;;;;;34.25;29.65;;;;;;;24.19;53.17;93494.31;6055258;23;20025;-94
2022/08/04 02:29:21;;;;;;;34.10;28.23;;;;;;;24.21;53.17;93493.78;6079474;23;20034;-92
2022/08/04 02:31:59;;;;;;;33.53;28.80;;;;;;;24.18;53.07;93501.13;6062168;23;20022;-93
2022/08/04 02:34:30;;;;;;;33.97;29.58;;;;;;;24.19;53.20;93488.78;6062700;23;20078;-93
2022/08/04 02:36:58;;;;;;;33.72;28.05;;;;;;;24.19;53.10;93490.81;6029019;23;20014;-93
2022/08/04 02:39:24;;;;;;;31.52;27.88;;;;;;;24.19;53.18;93485.28;6001015;23;20050;-94
2022/08/04 02:42:03;;;;;;;34.15;27.83;;;;;;;24.17;52.99;93476.81;5984945;23;20075;-93
2022/08/04 02:44:38;;;;;;;31.20;27.10;;;;;;;24.16;53.13;93470.56;5955313;23;20068;-94
2022/08/04 02:47:19;;;;;;;33.35;26.90;;;;;;;24.16;53.04;93489.88;6001075;23;20553;-93
2022/08/04 02:49:47;;;;;;;32.17;25.65;;;;;;;24.17;53.11;93479.56;6058758;23;20377;-94
2022/08/04 02:52:14;;;;;;;33.83;27.30;;;;;;;24.18;53.05;93489.34;6084509;23;20018;-94
2022/08/04 02:54:41;;;;;;;30.73;26.83;;;;;;;24.19;53.00;93474.25;6060452;23;20029;-94
2022/08/04 02:57:10;;;;;;;30.30;26.42;;;;;;;24.19;53.04;93469.47;6000633;23;20031;-93
2022/08/04 02:59:49;;;;;;;30.50;25.50;;;;;;;24.18;52.88;93472.78;6021144;23;20020;-93
2022/08/04 03:02:16;;;;;;;32.38;26.25;;;;;;;24.20;52.95;93482.00;6002080;23;20129;-94
2022/08/04 03:04:57;;;;;;;28.77;25.20;;;;;;;24.14;52.97;93469.63;5958066;23;20026;-94
2022/08/04 03:07:42;;;;;;;31.05;26.25;;;;;;;24.15;53.11;93480.13;6020363;23;20027;-94
2022/08/04 03:10:46;;;;;;;28.92;24.17;;;;;;;24.15;53.04;93479.38;6022173;23;20091;-94
2022/08/04 03:13:33;;;;;;;27.77;24.42;;;;;;;24.15;53.10;93482.16;6016679;23;20031;-94
2022/08/04 03:16:28;;;;;;;27.30;23.58;;;;;;;24.15;53.09;93480.13;6011561;23;20033;-94
2022/08/04 03:19:00;;;;;;;29.05;25.90;;;;;;;24.15;52.98;93469.06;6079907;23;20030;-94
2022/08/04 03:21:56;;;;;;;26.85;23.83;;;;;;;24.14;53.02;93478.66;6074821;23;20066;-94
2022/08/04 03:25:07;;;;;;;27.35;22.95;;;;;;;24.13;53.08;93481.94;6173083;23;20108;-93
2022/08/04 03:28:11;;;;;;;26.48;22.48;;;;;;;24.14;52.82;93473.13;6140907;23;20022;-94
2022/08/04 03:30:58;;;;;;;28.30;23.25;;;;;;;24.13;53.01;93477.16;6134817;23;20026;-93
2022/08/04 03:33:49;;;;;;;28.02;23.63;;;;;;;24.13;53.03;93474.41;6115736;23;20026;-95
2022/08/04 03:36:31;;;;;;;26.55;23.17;;;;;;;24.14;52.95;93472.38;6178654;23;20013;-94
2022/08/04 03:39:35;;;;;;;25.65;22.13;;;;;;;24.12;52.90;93463.91;6145489;23;20091;-94
2022/08/04 03:42:35;;;;;;;27.48;23.17;;;;;;;24.11;53.00;93474.22;6145103;23;20017;-94
2022/08/04 03:45:16;;;;;;;24.17;21.33;;;;;;;24.13;52.95;93482.69;6161686;23;20021;-95
2022/08/04 03:48:19;;;;;;;27.33;21.65;;;;;;;24.11;53.05;93484.53;6136209;23;20023;-94
2022/08/04 03:53:58;;;;;;;25.25;21.00;;;;;;;24.14;52.99;93481.41;6204621;23;20353;-94
2022/08/04 03:56:53;;;;;;;25.88;21.58;;;;;;;24.10;52.97;93481.03;6096976;23;20018;-94
2022/08/04 03:59:32;;;;;;;26.10;21.75;;;;;;;24.13;52.75;93479.19;6061044;23;20078;-94
2022/08/04 04:02:15;;;;;;;32.05;26.35;;;;;;;24.14;52.89;93466.84;6062947;23;20545;-93
2022/08/04 04:05:13;;;;;;;12.50;11.20;;;;;;;24.03;46.35;93469.97;6066687;23;20091;-93
2022/08/04 04:08:00;;;;;;;11.48;8.95;;;;;;;23.92;44.10;93474.50;6063538;23;20059;-94
2022/08/04 04:10:39;;;;;;;6.95;6.22;;;;;;;23.78;43.04;93475.19;6063530;23;20023;-92
2022/08/04 04:13:15;;;;;;;10.27;5.32;;;;;;;23.75;42.38;93471.50;6062247;23;20010;-93
2022/08/04 04:16:05;;;;;;;8.23;4.85;;;;;;;23.87;42.26;93469.88;6002943;23;20081;-93
2022/08/04 04:19:10;;;;;;;4.57;4.17;;;;;;;23.87;41.99;93461.59;6038303;23;20348;-94
2022/08/04 04:22:00;;;;;;;6.10;4.07;;;;;;;23.86;41.42;93468.41;6061027;23;20245;-93
2022/08/04 04:24:35;;;;;;;8.43;4.57;;;;;;;23.84;41.35;93468.22;6038482;23;20047;-92
2022/08/04 04:27:33;;;;;;;4.78;3.80;;;;;;;23.84;41.73;93468.22;6038437;23;20245;-93
2022/08/04 04:30:05;;;;;;;8.52;4.13;;;;;;;23.80;41.47;93467.84;6081409;23;20022;-91
2022/08/04 04:33:08;;;;;;;6.07;3.50;;;;;;;23.78;41.60;93469.66;6059602;23;20026;-92
2022/08/04 04:36:00;;;;;;;145.98;111.22;;;;;;;23.72;41.80;93469.81;6151587;23;20052;-92
2022/08/04 04:39:01;;;;;;;478.63;379.15;;;;;;;23.66;42.06;93471.25;6140577;23;20056;-92
2022/08/04 04:41:50;;;;;;;25.90;18.00;;;;;;;23.70;41.01;93477.16;6085340;23;20085;-93
2022/08/04 04:44:22;;;;;;;4.90;4.07;;;;;;;23.67;41.08;93481.75;6108301;23;20537;-92
2022/08/04 04:46:52;;;;;;;4.65;4.25;;;;;;;23.66;40.83;93482.28;6092161;23;20075;-93
2022/08/04 04:49:39;;;;;;;21.63;14.38;;;;;;;23.59;42.13;93480.97;6038190;23;20025;-93
2022/08/04 04:52:55;;;;;;;10.70;5.03;;;;;;;23.60;41.95;93487.25;6042403;23;20022;-93
2022/08/04 04:55:44;;;;;;;5.40;4.30;;;;;;;23.58;41.98;93485.03;6080271;23;20378;-91
2022/08/04 04:58:14;;;;;;;5.95;3.22;;;;;;;23.45;41.91;93474.78;6110251;23;20011;-94
2022/08/04 05:00:45;;;;;;;5.83;4.53;;;;;;;23.54;42.22;93490.16;6079347;23;20018;-94
2022/08/04 05:03:32;;;;;;;7.75;4.60;;;;;;;23.56;41.84;93487.59;6104186;23;20075;-94
2022/08/04 05:06:22;;;;;;;24.08;7.50;;;;;;;23.50;42.04;93489.72;6064054;23;20078;-93
2022/08/04 05:09:11;;;;;;;34.47;10.43;;;;;;;23.61;41.78;93491.44;6027762;23;20023;-94
2022/08/04 05:11:57;;;;;;;41.38;11.68;;;;;;;23.61;41.75;93486.66;6086640;23;20029;-92
2022/08/04 05:14:27;;;;;;;45.15;11.02;;;;;;;23.67;41.84;93481.00;6158184;23;20041;-92
2022/08/04 05:17:03;;;;;;;21.25;7.60;;;;;;;23.70;41.63;93488.94;6110006;23;20076;-93
2022/08/04 05:19:51;;;;;;;16.02;7.68;;;;;;;23.66;41.79;93479.53;6092665;23;20480;-93
2022/08/04 05:22:30;;;;;;;26.42;9.25;;;;;;;23.69;41.82;93483.97;6146750;23;20024;-93
2022/08/04 05:25:11;;;;;;;16.88;7.97;;;;;;;23.75;41.77;93481.78;6078579;23;20030;-94
2022/08/04 05:27:40;;;;;;;44.13;25.45;;;;;;;23.74;42.04;93491.34;6102580;23;20072;-93
2022/08/04 05:30:14;;;;;;;48.22;28.80;;;;;;;23.81;41.72;93491.41;6066046;23;20017;-94
2022/08/04 05:33:01;;;;;;;55.42;31.83;;;;;;;23.81;42.17;93491.41;6085531;23;20018;-95
2022/08/04 05:35:32;;;;;;;77.22;39.60;;;;;;;23.83;41.96;93491.56;6088886;23;20138;-95
2022/08/04 05:37:58;;;;;;;98.30;54.78;;;;;;;23.87;41.98;93489.19;6079491;23;20025;-93
2022/08/04 05:40:25;;;;;;;137.93;91.43;;;;;;;23.90;42.07;93498.44;6079056;23;20466;-93
2022/08/04 05:42:55;;;;;;;87.68;49.95;;;;;;;23.93;42.14;93497.34;6075338;23;20018;-94
2022/08/04 05:45:22;;;;;;;82.00;46.42;;;;;;;23.92;42.15;93493.84;6075038;23;20022;-93
2022/08/04 05:47:58;;;;;;;67.57;40.45;;;;;;;23.98;42.43;93495.72;6016293;23;20031;-92
2022/08/04 05:50:24;;;;;;;74.50;44.10;;;;;;;24.00;42.45;93491.13;6014609;23;20019;-93
2022/08/04 05:52:51;;;;;;;100.72;53.85;;;;;;;24.00;42.23;93499.41;6053106;23;20026;-92
2022/08/04 05:55:17;;;;;;;96.13;54.88;;;;;;;23.99;42.40;93497.94;5994806;23;20772;-93
2022/08/04 05:57:43;;;;;;;85.88;47.35;;;;;;;24.05;42.65;93494.97;5951840;23;20035;-92
2022/08/04 06:00:09;;;;;;;73.20;41.55;;;;;;;24.05;42.44;93494.97;5985123;23;20023;-91
2022/08/04 06:02:35;;;;;;;70.38;40.92;;;;;;;24.07;42.44;93495.91;5956817;23;20019;-92
2022/08/04 06:05:01;;;;;;;57.05;34.50;;;;;;;24.09;42.74;93496.09;6022839;23;20031;-92
2022/08/04 06:07:26;;;;;;;59.88;34.70;;;;;;;24.11;42.92;93503.84;5957037;23;20093;-91
2022/08/04 06:09:52;;;;;;;51.42;29.40;;;;;;;24.08;42.63;93497.41;5956690;23;20079;-92
2022/08/04 06:12:22;;;;;;;46.05;25.48;;;;;;;24.12;42.96;93495.03;5958326;23;20396;-94
2022/08/04 06:14:49;;;;;;;40.78;24.77;;;;;;;24.15;42.90;93499.47;5961352;23;20022;-90
2022/08/04 06:17:30;;;;;;;37.20;21.08;;;;;;;24.15;43.05;93496.69;6004101;23;20029;-94
2022/08/04 06:19:59;;;;;;;29.85;19.25;;;;;;;24.17;43.19;93498.91;6103709;23;20014;-92
2022/08/04 06:22:27;;;;;;;34.75;20.70;;;;;;;24.19;43.04;93491.56;6075178;23;20556;-93
2022/08/04 06:24:52;;;;;;;33.53;20.35;;;;;;;24.21;43.31;93500.03;6052086;23;20025;-93
2022/08/04 06:27:18;;;;;;;50.72;29.85;;;;;;;24.22;43.33;93495.25;6052226;23;20018;-93
2022/08/04 06:29:44;;;;;;;92.93;55.10;;;;;;;24.20;43.81;93497.81;6050651;23;20022;-94
2022/08/04 06:32:23;;;;;;;94.97;56.85;;;;;;;24.22;43.56;93490.47;6041830;23;20025;-93
2022/08/04 06:34:51;;;;;;;111.70;68.15;;;;;;;24.20;44.21;93492.31;6057743;23;20382;-92
2022/08/04 06:37:17;;;;;;;93.30;57.55;;;;;;;24.25;44.05;93497.66;6050123;23;20041;-93
2022/08/04 06:39:42;;;;;;;106.15;56.95;;;;;;;24.23;44.01;93502.25;6050653;23;20481;-92
2022/08/04 06:42:08;;;;;;;67.63;41.55;;;;;;;24.22;44.35;93498.75;6049875;23;20022;-92
2022/08/04 06:44:33;;;;;;;78.68;47.10;;;;;;;24.28;44.50;93495.84;6055318;23;20050;-93
2022/08/04 06:46:59;;;;;;;67.53;40.33;;;;;;;24.24;44.48;93501.75;6110102;23;20092;-92
2022/08/04 06:49:24;;;;;;;93.47;53.70;;;;;;;24.31;44.79;93496.78;6109993;23;20476;-94
2022/08/04 06:51:50;;;;;;;103.47;69.38;;;;;;;24.32;44.58;93498.25;6134477;23;20017;-94
2022/08/04 06:54:15;;;;;;;85.90;54.75;;;;;;;24.34;44.59;93492.91;6135786;23;20016;-93
2022/08/04 06:56:42;;;;;;;77.88;46.50;;;;;;;24.30;44.81;93484.97;6113077;23;20025;-94
2022/08/04 06:59:07;;;;;;;75.13;44.25;;;;;;;24.32;45.13;93487.19;6134678;23;20051;-92
2022/08/04 07:01:34;;;;;;;66.75;41.45;;;;;;;24.36;45.17;93488.31;6109431;23;20017;-93
2022/08/04 07:03:59;;;;;;;63.78;38.47;;;;;;;24.35;45.50;93481.31;6112402;23;20017;-94
2022/08/04 07:06:48;;;;;;;87.00;40.13;;;;;;;24.38;45.51;93480.22;6135099;23;20021;-93
2022/08/04 07:09:13;;;;;;;92.70;42.17;;;;;;;24.40;45.39;93485.19;6071399;23;20010;-93
2022/08/04 07:11:39;;;;;;;81.95;35.85;;;;;;;24.38;45.55;93491.28;6073328;23;20021;-94
2022/08/04 07:14:05;;;;;;;65.38;32.03;;;;;;;24.40;45.78;93480.41;6048780;23;20033;-93
2022/08/04 07:16:30;;;;;;;61.30;32.20;;;;;;;24.47;45.72;93487.97;6053606;23;20002;-92
2022/08/04 07:18:56;;;;;;;72.50;32.60;;;;;;;24.42;45.92;93482.63;6076444;23;20263;-92
2022/08/04 07:21:22;;;;;;;59.53;32.97;;;;;;;24.44;45.85;93480.06;6047527;23;20092;-90
2022/08/04 07:23:48;;;;;;;60.80;30.73;;;;;;;24.46;45.78;93492.03;6070961;23;20089;-90
2022/08/04 07:26:15;;;;;;;53.72;30.08;;;;;;;24.49;46.37;93477.09;6071181;23;20033;-91
2022/08/04 07:28:40;;;;;;;97.18;43.60;;;;;;;24.45;45.97;93487.06;6049740;23;20025;-92
2022/08/04 07:31:06;;;;;;;116.97;54.40;;;;;;;24.45;46.17;93481.53;6046557;23;20022;-90
2022/08/04 07:33:31;;;;;;;113.78;45.60;;;;;;;24.47;46.59;93487.22;6049948;23;20363;-90
2022/08/04 07:35:57;;;;;;;118.05;40.00;;;;;;;24.58;46.61;93490.41;6067230;23;20417;-91
2022/08/04 07:38:22;;;;;;;86.55;38.63;;;;;;;24.54;46.58;93489.28;6050397;23;20541;-92
2022/08/04 07:40:48;;;;;;;112.22;48.97;;;;;;;24.52;46.50;93494.63;6068111;23;20065;-91
2022/08/04 07:43:15;;;;;;;101.32;41.90;;;;;;;24.54;46.88;93489.28;6047375;23;20096;-92
2022/08/04 07:45:40;;;;;;;88.47;39.90;;;;;;;24.56;47.18;93484.69;6072755;23;20033;-92
2022/08/04 07:48:07;;;;;;;91.35;35.58;;;;;;;24.61;47.12;93491.34;6044824;23;20018;-90
2022/08/04 07:50:33;;;;;;;99.47;38.95;;;;;;;24.60;47.09;93492.63;6050129;23;20197;-91
2022/08/04 07:52:59;;;;;;;87.90;39.45;;;;;;;24.57;47.11;93488.19;6071131;23;20100;-90
2022/08/04 07:55:25;;;;;;;79.13;36.63;;;;;;;24.62;47.16;93490.03;6070561;23;20029;-90
2022/08/04 07:57:50;;;;;;;117.15;50.63;;;;;;;24.60;47.20;93481.56;6070013;23;20642;-90
2022/08/04 08:00:16;;;;;;;122.68;53.42;;;;;;;24.60;47.33;93489.84;6073177;23;20022;-91
2022/08/04 08:02:42;;;;;;;126.68;56.05;;;;;;;24.67;47.31;93491.16;6068191;23;20025;-91
2022/08/04 08:05:09;;;;;;;110.38;48.58;;;;;;;24.64;47.19;93489.50;6070728;23;20022;-91
2022/08/04 08:07:35;;;;;;;111.18;44.15;;;;;;;24.70;47.26;93495.56;6067508;23;20014;-89
2022/08/04 08:10:00;;;;;;;126.97;60.72;;;;;;;24.73;47.28;93495.22;6065213;23;20502;-90
2022/08/04 08:12:26;;;;;;;120.95;58.55;;;;;;;24.71;47.52;93495.03;6061209;23;20085;-88
2022/08/04 08:14:51;;;;;;;110.78;54.13;;;;;;;24.74;47.46;93495.94;6076784;23;20028;-88
2022/08/04 08:17:17;;;;;;;102.65;47.58;;;;;;;24.71;47.37;93495.03;6110634;23;20021;-90
2022/08/04 08:19:42;;;;;;;79.72;38.75;;;;;;;24.69;47.54;93488.56;6113766;23;20024;-90
2022/08/04 08:22:09;;;;;;;65.18;34.38;;;;;;;24.68;47.80;93496.16;6125467;23;20017;-89
2022/08/04 08:24:35;;;;;;;74.05;37.67;;;;;;;24.69;47.78;93491.31;6091137;23;20013;-88
2022/08/04 08:27:03;;;;;;;117.97;54.70;;;;;;;24.72;47.76;93504.06;6124351;23;20398;-90
2022/08/04 08:29:28;;;;;;;107.97;52.22;;;;;;;24.76;47.71;93496.88;6121733;23;20037;-93
2022/08/04 08:31:56;;;;;;;85.88;36.38;;;;;;;24.76;47.68;93494.13;6096556;23;20028;-90
2022/08/04 08:34:22;;;;;;;74.55;36.90;;;;;;;24.70;47.94;93498.34;6102803;23;20030;-89
2022/08/04 08:36:50;;;;;;;92.43;41.92;;;;;;;24.73;47.99;93495.22;6110984;23;20018;-90
2022/08/04 08:39:17;;;;;;;134.15;66.63;;;;;;;24.73;48.11;93502.75;6120436;23;20049;-89
2022/08/04 08:42:14;;;;;;;131.98;62.63;;;;;;;24.69;48.26;93494.09;6116200;23;20017;-88
2022/08/04 08:45:11;;;;;;;127.82;51.90;;;;;;;24.73;48.25;93502.75;6087248;23;20396;-89
2022/08/04 08:48:00;;;;;;;112.57;48.08;;;;;;;24.71;48.43;93497.78;6151235;23;20097;-90
2022/08/04 08:51:04;;;;;;;134.30;51.83;;;;;;;24.69;48.42;93496.84;6099204;23;20453;-90
2022/08/04 08:53:42;;;;;;;120.85;57.97;;;;;;;24.73;48.30;93497.97;6133769;23;20080;-91
2022/08/04 08:56:07;;;;;;;111.43;52.63;;;;;;;24.79;48.50;93500.56;6134758;23;20017;-92
2022/08/04 08:59:04;;;;;;;132.23;59.08;;;;;;;24.75;48.39;93498.16;6126037;23;20030;-88
2022/08/04 09:01:54;;;;;;;106.45;55.88;;;;;;;24.76;48.47;93499.63;6136144;23;20017;-91
2022/08/04 09:04:31;;;;;;;70.35;36.13;;;;;;;24.82;48.73;93502.25;6125635;23;20006;-89
2022/08/04 09:07:29;;;;;;;93.03;42.65;;;;;;;24.82;48.71;93507.78;6059522;23;20485;-89
2022/08/04 09:10:08;;;;;;;77.10;37.80;;;;;;;24.80;48.68;93494.50;6067990;23;20030;-88
2022/08/04 09:13:03;;;;;;;90.50;39.57;;;;;;;24.80;48.59;93499.28;6045188;23;20029;-93
2022/08/04 09:15:51;;;;;;;175.55;72.20;;;;;;;24.86;48.53;93503.34;6041959;23;20029;-86
2022/08/04 09:18:26;;;;;;;102.05;42.70;;;;;;;24.80;48.45;93502.78;6034380;23;20069;-88
2022/08/04 09:20:59;;;;;;;90.00;38.72;;;;;;;24.85;48.61;93507.41;6036602;23;20023;-87
2022/08/04 09:24:05;;;;;;;134.13;70.10;;;;;;;24.80;48.79;93510.34;6014528;23;20018;-91
2022/08/04 09:26:42;;;;;;;267.52;143.57;;;;;;;24.82;49.00;93505.75;6064942;23;20038;-88
2022/08/04 09:29:10;;;;;;;164.45;68.20;;;;;;;24.84;48.68;93496.91;6040081;23;20030;-87
2022/08/04 09:31:53;;;;;;;134.88;56.55;;;;;;;24.85;49.00;93506.66;6062208;23;20042;-88
2022/08/04 09:34:34;;;;;;;155.52;79.35;;;;;;;24.89;49.20;93504.28;6039386;23;20258;-94
2022/08/04 09:37:11;;;;;;;127.65;66.93;;;;;;;24.94;48.87;93506.09;6072060;23;20026;-87
2022/08/04 09:39:52;;;;;;;113.18;55.45;;;;;;;24.98;48.44;93500.97;6124845;23;20021;-90
2022/08/04 09:42:24;;;;;;;105.60;49.70;;;;;;;25.01;47.96;93501.91;6148633;23;20100;-91
2022/08/04 09:44:58;;;;;;;97.45;44.03;;;;;;;25.06;48.04;93507.28;6092503;23;20437;-92
2022/08/04 09:47:33;;;;;;;61.28;31.20;;;;;;;25.10;47.50;93499.34;6150736;23;20060;-89
2022/08/04 09:50:12;;;;;;;43.10;22.88;;;;;;;25.13;47.27;93500.97;6119583;23;20025;-91
2022/08/04 09:52:46;;;;;;;57.00;30.27;;;;;;;25.11;47.34;93503.59;6147760;23;20021;-92
2022/08/04 09:55:33;;;;;;;62.67;29.67;;;;;;;25.08;47.54;93493.63;6138006;23;20033;-92
2022/08/04 09:58:06;;;;;;;50.90;23.42;;;;;;;25.10;47.50;93496.59;6095501;23;20018;-90
2022/08/04 10:00:35;;;;;;;59.63;26.25;;;;;;;25.11;47.62;93498.06;6148022;23;20512;-89
2022/08/04 10:03:01;;;;;;;49.00;25.83;;;;;;;25.08;47.72;93493.63;6098173;23;20342;-90
2022/08/04 10:06:11;;;;;;;50.03;26.50;;;;;;;25.07;47.65;93496.94;6095364;23;20041;-90
2022/08/04 10:08:40;;;;;;;;;;;;;;;25.02;47.85;93489.56;6147625;23;20071;-90
2022/08/04 10:11:11;;;;;;;48.65;23.25;;;;;;;25.11;47.84;93494.56;6147487;23;19913;-89
2022/08/04 10:13:56;;;;;;;30.83;17.35;;;;;;;25.07;47.99;93491.41;6136889;23;20028;-90
2022/08/04 10:16:51;;;;;;;39.08;20.15;;;;;;;25.02;48.14;93492.31;6121581;23;20017;-88
2022/08/04 10:19:23;;;;;;;35.08;18.02;;;;;;;25.06;48.01;93490.66;6115500;23;20018;-90
2022/08/04 10:21:54;;;;;;;26.48;16.23;;;;;;;25.05;48.20;93494.72;6144906;23;20025;-89
2022/08/04 10:24:32;;;;;;;26.30;15.55;;;;;;;25.02;48.22;93495.09;6145901;23;20025;-90
2022/08/04 10:27:03;;;;;;;26.67;16.35;;;;;;;25.04;48.01;93493.25;6146289;23;20025;-89
2022/08/04 10:29:46;;;;;;;26.13;16.08;;;;;;;25.01;48.37;93499.16;6129752;23;20018;-92
2022/08/04 10:32:18;;;;;;;28.98;17.73;;;;;;;25.04;48.29;93492.50;6099825;23;20196;-90
2022/08/04 10:35:00;;;;;;;25.00;15.63;;;;;;;25.04;48.24;93492.50;6088806;23;20025;-92
2022/08/04 10:37:28;;;;;;;19.58;14.70;;;;;;;25.03;48.26;93494.53;6098124;23;20089;-90
2022/08/04 10:42:49;;;;;;;17.38;12.35;;;;;;;25.03;48.19;93491.03;6128568;23;20029;-90
2022/08/04 10:45:21;;;;;;;14.23;10.93;;;;;;;25.06;48.25;93489.94;6120607;23;20014;-91
2022/08/04 10:48:23;;;;;;;17.27;12.77;;;;;;;25.06;48.23;93485.13;6117968;23;20076;-89
2022/08/04 10:51:10;;;;;;;16.00;10.20;;;;;;;25.09;48.41;93486.81;6116950;23;20025;-89
2022/08/04 10:53:37;;;;;;;17.27;11.18;;;;;;;25.08;48.31;93490.13;6103278;23;20093;-89
2022/08/04 10:56:10;;;;;;;35.50;19.77;;;;;;;25.05;48.57;93478.13;6123038;23;20014;-88
2022/08/04 10:58:39;;;;;;;72.25;32.65;;;;;;;25.07;48.73;93486.63;6119615;23;20045;-90
2022/08/04 11:01:10;;;;;;;72.78;39.00;;;;;;;25.06;48.91;93487.16;6126877;23;20013;-90
2022/08/04 11:03:39;;;;;;;48.53;31.27;;;;;;;25.14;48.85;93487.88;6098777;23;20018;-90
2022/08/04 11:06:05;;;;;;;45.70;22.88;;;;;;;25.17;48.62;93479.22;6082757;23;20053;-90
2022/08/04 11:08:35;;;;;;;36.47;22.48;;;;;;;25.18;48.60;93482.72;6099164;23;20108;-89
2022/08/04 11:11:10;;;;;;;;;;;;;;;25.11;48.67;93478.69;6121826;23;20036;-89
2022/08/04 11:13:43;;;;;;;23.55;13.30;;;;;;;25.22;48.61;93481.06;6152382;23;19917;-89
2022/08/04 11:16:13;;;;;;;14.45;10.25;;;;;;;25.23;48.53;93479.78;6101644;23;20032;-90
2022/08/04 11:18:57;;;;;;;16.70;11.07;;;;;;;25.27;48.37;93477.38;6128331;23;20022;-90
2022/08/04 11:21:30;;;;;;;58.20;19.20;;;;;;;25.25;48.39;93482.72;6150575;23;20085;-89
2022/08/04 11:24:02;;;;;;;60.60;18.52;;;;;;;25.24;48.56;93477.75;6125434;23;20045;-89
2022/08/04 11:26:34;;;;;;;85.15;21.90;;;;;;;25.22;48.73;93470.00;6126797;23;20063;-89
2022/08/04 11:29:36;;;;;;;57.58;18.08;;;;;;;25.19;48.69;93479.41;6100239;23;20013;-90
2022/08/04 11:32:02;;;;;;;57.55;18.27;;;;;;;25.19;48.64;93468.34;6146047;23;20014;-90
2022/08/04 11:34:28;;;;;;;60.70;17.83;;;;;;;25.21;48.71;93476.09;6127430;23;20029;-90
2022/08/04 11:36:56;;;;;;;55.50;16.02;;;;;;;25.19;48.79;93486.97;6097356;23;20048;-91
2022/08/04 11:39:27;;;;;;;47.38;18.88;;;;;;;25.20;48.73;93477.38;6151914;23;20028;-90
2022/08/04 11:41:55;;;;;;;61.40;16.70;;;;;;;25.17;48.56;93468.16;6109447;23;20052;-91
2022/08/04 11:44:41;;;;;;;52.95;18.20;;;;;;;25.17;49.01;93479.22;6146780;23;20113;-92
2022/08/04 11:47:15;;;;;;;59.83;19.42;;;;;;;25.19;48.66;93470.38;6145617;23;20052;-90
2022/08/04 11:49:45;;;;;;;62.70;19.17;;;;;;;25.15;48.53;93470.00;6096325;23;20014;-90
2022/08/04 11:52:11;;;;;;;;;;;;;;;25.11;48.86;93475.19;6099279;23;20041;-91
2022/08/04 11:54:38;;;;;;;79.25;21.17;;;;;;;25.19;48.53;93470.38;6120005;23;19918;-91
2022/08/04 11:57:29;;;;;;;82.70;22.20;;;;;;;25.14;48.92;93476.81;6106221;23;20018;-90
2022/08/04 11:59:55;;;;;;;72.95;20.88;;;;;;;25.16;48.90;93479.78;6134730;23;20592;-91
2022/08/04 12:02:32;;;;;;;77.13;23.45;;;;;;;25.12;49.03;93469.06;6128626;23;20084;-90